地図

経路データ

SID SEASON NUMBER BASIN SUBBASIN NAME ISO_TIME NATURE LAT LON WMO_WIND WMO_PRES WMO_AGENCY TRACK_TYPE DIST2LAND LANDFALL IFLAG USA_AGENCY USA_ATCF_ID USA_LAT USA_LON USA_RECORD USA_STATUS USA_WIND USA_PRES USA_SSHS USA_R34_NE USA_R34_SE USA_R34_SW USA_R34_NW USA_R50_NE USA_R50_SE USA_R50_SW USA_R50_NW USA_R64_NE USA_R64_SE USA_R64_SW USA_R64_NW USA_POCI USA_ROCI USA_RMW USA_EYE TOKYO_LAT TOKYO_LON TOKYO_GRADE TOKYO_WIND TOKYO_PRES TOKYO_R50_DIR TOKYO_R50_LONG TOKYO_R50_SHORT TOKYO_R30_DIR TOKYO_R30_LONG TOKYO_R30_SHORT TOKYO_LAND CMA_LAT CMA_LON CMA_CAT CMA_WIND CMA_PRES HKO_LAT HKO_LON HKO_CAT HKO_WIND HKO_PRES NEWDELHI_LAT NEWDELHI_LON NEWDELHI_GRADE NEWDELHI_WIND NEWDELHI_PRES NEWDELHI_CI NEWDELHI_DP NEWDELHI_POCI REUNION_LAT REUNION_LON REUNION_TYPE REUNION_WIND REUNION_PRES REUNION_TNUM REUNION_CI REUNION_RMW REUNION_R34_NE REUNION_R34_SE REUNION_R34_SW REUNION_R34_NW REUNION_R50_NE REUNION_R50_SE REUNION_R50_SW REUNION_R50_NW REUNION_R64_NE REUNION_R64_SE REUNION_R64_SW REUNION_R64_NW BOM_LAT BOM_LON BOM_TYPE BOM_WIND BOM_PRES BOM_TNUM BOM_CI BOM_RMW BOM_R34_NE BOM_R34_SE BOM_R34_SW BOM_R34_NW BOM_R50_NE BOM_R50_SE BOM_R50_SW BOM_R50_NW BOM_R64_NE BOM_R64_SE BOM_R64_SW BOM_R64_NW BOM_ROCI BOM_POCI BOM_EYE BOM_POS_METHOD BOM_PRES_METHOD NADI_LAT NADI_LON NADI_CAT NADI_WIND NADI_PRES WELLINGTON_LAT WELLINGTON_LON WELLINGTON_WIND WELLINGTON_PRES DS824_LAT DS824_LON DS824_STAGE DS824_WIND DS824_PRES TD9636_LAT TD9636_LON TD9636_STAGE TD9636_WIND TD9636_PRES TD9635_LAT TD9635_LON TD9635_WIND TD9635_PRES TD9635_ROCI NEUMANN_LAT NEUMANN_LON NEUMANN_CLASS NEUMANN_WIND NEUMANN_PRES MLC_LAT MLC_LON MLC_CLASS MLC_WIND MLC_PRES USA_GUST BOM_GUST BOM_GUST_PER REUNION_GUST REUNION_GUST_PER USA_SEAHGT USA_SEARAD_NE USA_SEARAD_SE USA_SEARAD_SW USA_SEARAD_NW STORM_SPEED STORM_DIR
1913172N11280 1913 28 NA CS NOT_NAMED 1913-06-21 06:00:00 TS 11.0000 -80.0000 30 hurdat_atl main 171 171 O_____________ hurdat_atl AL011913 11.0000 -80.0000 TD 30 -1 6 268
1913172N11280 1913 28 NA CS NOT_NAMED 1913-06-21 09:00:00 TS 10.9901 -80.2900 main 180 180 P_____________ AL011913 10.9901 -80.2900 TD 30 -1 5 270
1913172N11280 1913 28 NA CS NOT_NAMED 1913-06-21 12:00:00 TS 11.0000 -80.5000 30 hurdat_atl main 189 189 O_____________ hurdat_atl AL011913 11.0000 -80.5000 TD 30 -1 3 280
1913172N11280 1913 28 NA CS NOT_NAMED 1913-06-21 15:00:00 TS 11.0425 -80.5800 main 194 194 P_____________ AL011913 11.0425 -80.5800 TD 30 -1 1 317
1913172N11280 1913 28 NA CS NOT_NAMED 1913-06-21 18:00:00 TS 11.1000 -80.6000 30 hurdat_atl main 204 204 O_____________ hurdat_atl AL011913 11.1000 -80.6000 TD 30 -1 1 329
1913172N11280 1913 28 NA CS NOT_NAMED 1913-06-21 21:00:00 TS 11.1500 -80.6500 main 214 210 P_____________ AL011913 11.1500 -80.6500 TD 30 -1 1 317
1913172N11280 1913 28 NA CS NOT_NAMED 1913-06-22 00:00:00 TS 11.2000 -80.7000 30 hurdat_atl main 219 219 O_____________ hurdat_atl AL011913 11.2000 -80.7000 TD 30 -1 1 318
1913172N11280 1913 28 NA CS NOT_NAMED 1913-06-22 03:00:00 TS 11.2425 -80.7425 main 219 219 P_____________ AL011913 11.2425 -80.7425 TD 30 -1 1 317
1913172N11280 1913 28 NA CS NOT_NAMED 1913-06-22 06:00:00 TS 11.3000 -80.8000 30 hurdat_atl main 234 234 O_____________ hurdat_atl AL011913 11.3000 -80.8000 TD 30 -1 2 311
1913172N11280 1913 28 NA CS NOT_NAMED 1913-06-22 09:00:00 TS 11.3625 -80.8850 main 250 250 P_____________ AL011913 11.3625 -80.8850 TD 35 0 3 315
1913172N11280 1913 28 NA CS NOT_NAMED 1913-06-22 12:00:00 TS 11.5000 -81.0000 40 hurdat_atl main 265 265 O_____________ hurdat_atl AL011913 11.5000 -81.0000 TS 40 0 5 328
1913172N11280 1913 28 NA CS NOT_NAMED 1913-06-22 15:00:00 TS 11.7700 -81.1425 main 269 241 P_____________ AL011913 11.7700 -81.1425 TS 42 0 7 334
1913172N11280 1913 28 NA CS NOT_NAMED 1913-06-22 18:00:00 TS 12.1000 -81.3000 45 hurdat_atl main 241 228 O_____________ hurdat_atl AL011913 12.1000 -81.3000 TS 45 0 7 335
1913172N11280 1913 28 NA CS NOT_NAMED 1913-06-22 21:00:00 TS 12.3925 -81.4426 main 228 206 P_____________ AL011913 12.3925 -81.4426 TS 45 0 7 334
1913172N11280 1913 28 NA CS NOT_NAMED 1913-06-23 00:00:00 TS 12.7000 -81.6000 45 hurdat_atl main 206 184 O_____________ hurdat_atl AL011913 12.7000 -81.6000 TS 45 0 7 333
1913172N11280 1913 28 NA CS NOT_NAMED 1913-06-23 03:00:00 TS 13.0500 -81.7850 main 184 162 P_____________ AL011913 13.0500 -81.7850 TS 45 0 8 331
1913172N11280 1913 28 NA CS NOT_NAMED 1913-06-23 06:00:00 TS 13.4000 -82.0000 45 hurdat_atl main 162 127 O_____________ hurdat_atl AL011913 13.4000 -82.0000 TS 45 0 8 326
1913172N11280 1913 28 NA CS NOT_NAMED 1913-06-23 09:00:00 TS 13.7075 -82.2426 main 127 82 P_____________ AL011913 13.7075 -82.2426 TS 45 0 8 321
1913172N11280 1913 28 NA CS NOT_NAMED 1913-06-23 12:00:00 TS 14.0000 -82.5000 45 hurdat_atl main 82 53 O_____________ hurdat_atl AL011913 14.0000 -82.5000 TS 45 0 8 320
1913172N11280 1913 28 NA CS NOT_NAMED 1913-06-23 15:00:00 TS 14.3000 -82.7501 main 43 31 P_____________ AL011913 14.3000 -82.7501 TS 42 0 8 321
1913172N11280 1913 28 NA CS NOT_NAMED 1913-06-23 18:00:00 TS 14.6000 -83.0000 40 hurdat_atl main 32 0 O_____________ hurdat_atl AL011913 14.6000 -83.0000 TS 40 0 8 321
1913172N11280 1913 28 NA CS NOT_NAMED 1913-06-23 21:00:00 TS 14.9000 -83.2501 main 0 0 P_____________ AL011913 14.9000 -83.2501 TS 37 0 8 321
1913172N11280 1913 28 NA CS NOT_NAMED 1913-06-24 00:00:00 TS 15.2000 -83.5000 35 hurdat_atl main 0 0 O_____________ hurdat_atl AL011913 15.2000 -83.5000 TS 35 0 8 321
1913172N11280 1913 28 NA CS NOT_NAMED 1913-06-24 03:00:00 TS 15.4925 -83.7501 main 10 10 P_____________ AL011913 15.4925 -83.7501 TS 35 0 8 321
1913172N11280 1913 28 NA CS NOT_NAMED 1913-06-24 06:00:00 TS 15.8000 -84.0000 35 hurdat_atl main 22 22 O_____________ hurdat_atl AL011913 15.8000 -84.0000 TS 35 0 8 322
1913172N11280 1913 28 NA CS NOT_NAMED 1913-06-24 09:00:00 TS 16.1200 -84.2502 main 33 33 P_____________ AL011913 16.1200 -84.2502 TS 37 0 9 326
1913172N11280 1913 28 NA CS NOT_NAMED 1913-06-24 12:00:00 TS 16.5000 -84.5000 40 hurdat_atl main 70 70 O_____________ hurdat_atl AL011913 16.5000 -84.5000 TS 40 0 10 331
1913172N11280 1913 28 NA CS NOT_NAMED 1913-06-24 15:00:00 TS 16.9775 -84.7501 main 123 123 P_____________ AL011913 16.9775 -84.7501 TS 42 0 11 334
1913172N11280 1913 28 NA CS NOT_NAMED 1913-06-24 18:00:00 TS 17.5000 -85.0000 45 hurdat_atl main 179 179 O_____________ hurdat_atl AL011913 17.5000 -85.0000 TS 45 0 11 335
1913172N11280 1913 28 NA CS NOT_NAMED 1913-06-24 21:00:00 TS 18.0000 -85.2501 main 235 224 P_____________ AL011913 18.0000 -85.2501 TS 47 0 11 335
1913172N11280 1913 28 NA CS NOT_NAMED 1913-06-25 00:00:00 TS 18.5000 -85.5000 50 hurdat_atl main 224 187 O_____________ hurdat_atl AL011913 18.5000 -85.5000 TS 50 0 11 335
1913172N11280 1913 28 NA CS NOT_NAMED 1913-06-25 03:00:00 TS 19.0000 -85.7502 main 177 146 P_____________ AL011913 19.0000 -85.7502 TS 50 0 11 335
1913172N11280 1913 28 NA CS NOT_NAMED 1913-06-25 06:00:00 TS 19.5000 -86.0000 50 hurdat_atl main 146 115 O_____________ hurdat_atl AL011913 19.5000 -86.0000 TS 50 0 11 335
1913172N11280 1913 28 NA CS NOT_NAMED 1913-06-25 09:00:00 TS 20.0074 -86.2427 main 115 53 P_____________ AL011913 20.0074 -86.2427 TS 50 0 11 335
1913172N11280 1913 28 NA CS NOT_NAMED 1913-06-25 12:00:00 TS 20.5000 -86.5000 50 hurdat_atl main 53 10 O_____________ hurdat_atl AL011913 20.5000 -86.5000 TS 50 0 11 332
1913172N11280 1913 28 NA CS NOT_NAMED 1913-06-25 15:00:00 TS 20.9574 -86.7852 main 0 0 P_____________ AL011913 20.9574 -86.7852 TS 45 0 11 328
1913172N11280 1913 28 NA NA NOT_NAMED 1913-06-25 18:00:00 TS 21.4000 -87.1000 40 hurdat_atl main 0 0 O_____________ hurdat_atl AL011913 21.4000 -87.1000 TS 40 0 11 326
1913172N11280 1913 28 NA GM NOT_NAMED 1913-06-25 21:00:00 TS 21.8500 -87.4426 main 44 44 P_____________ AL011913 21.8500 -87.4426 TS 40 0 11 324
1913172N11280 1913 28 NA GM NOT_NAMED 1913-06-26 00:00:00 TS 22.3000 -87.8000 40 hurdat_atl main 89 89 O_____________ hurdat_atl AL011913 22.3000 -87.8000 TS 40 0 11 324
1913172N11280 1913 28 NA GM NOT_NAMED 1913-06-26 03:00:00 TS 22.7574 -88.1502 main 145 145 P_____________ AL011913 22.7574 -88.1502 TS 42 0 11 324
1913172N11280 1913 28 NA GM NOT_NAMED 1913-06-26 06:00:00 TS 23.2000 -88.5000 45 hurdat_atl main 190 190 O_____________ hurdat_atl AL011913 23.2000 -88.5000 TS 45 0 11 324
1913172N11280 1913 28 NA GM NOT_NAMED 1913-06-26 09:00:00 TS 23.6297 -88.8277 main 235 235 P_____________ AL011913 23.6297 -88.8277 TS 47 0 10 321
1913172N11280 1913 28 NA GM NOT_NAMED 1913-06-26 12:00:00 TS 24.0000 -89.2000 50 hurdat_atl main 286 286 O_____________ hurdat_atl AL011913 24.0000 -89.2000 TS 50 0 10 311
1913172N11280 1913 28 NA GM NOT_NAMED 1913-06-26 15:00:00 TS 24.2796 -89.6404 main 329 329 P_____________ AL011913 24.2796 -89.6404 TS 52 0 10 299
1913172N11280 1913 28 NA GM NOT_NAMED 1913-06-26 18:00:00 TS 24.5000 -90.2000 55 hurdat_atl main 369 369 O_____________ hurdat_atl AL011913 24.5000 -90.2000 TS 55 0 12 291
1913172N11280 1913 28 NA GM NOT_NAMED 1913-06-26 21:00:00 TS 24.7150 -90.9051 main 404 404 P_____________ AL011913 24.7150 -90.9051 TS 57 0 14 286
1913172N11280 1913 28 NA GM NOT_NAMED 1913-06-27 00:00:00 TS 24.9000 -91.7000 60 hurdat_atl main 448 448 O_____________ hurdat_atl AL011913 24.9000 -91.7000 TS 60 0 15 283
1913172N11280 1913 28 NA GM NOT_NAMED 1913-06-27 03:00:00 TS 25.0424 -92.5080 main 474 391 P_____________ AL011913 25.0424 -92.5080 TS 62 0 15 282
1913172N11280 1913 28 NA GM NOT_NAMED 1913-06-27 06:00:00 TS 25.2000 -93.3000 65 hurdat_atl main 391 317 O_____________ hurdat_atl AL011913 25.2000 -93.3000 HU 65 1 14 286
1913172N11280 1913 28 NA GM NOT_NAMED 1913-06-27 09:00:00 TS 25.4271 -94.0301 main 317 242 P_____________ AL011913 25.4271 -94.0301 HU 65 1 14 292
1913172N11280 1913 28 NA GM NOT_NAMED 1913-06-27 12:00:00 TS 25.7000 -94.7000 65 hurdat_atl main 242 179 O_____________ hurdat_atl AL011913 25.7000 -94.7000 HU 65 1 13 296
1913172N11280 1913 28 NA GM NOT_NAMED 1913-06-27 15:00:00 TS 25.9845 -95.3080 main 179 124 P_____________ AL011913 25.9845 -95.3080 HU 65 1 12 299
1913172N11280 1913 28 NA GM NOT_NAMED 1913-06-27 18:00:00 TS 26.3000 -95.9000 65 hurdat_atl main 124 86 O_____________ hurdat_atl AL011913 26.3000 -95.9000 HU 65 1 13 301
1913172N11280 1913 28 NA GM NOT_NAMED 1913-06-27 21:00:00 TS 26.6575 -96.5574 main 80 29 P_____________ AL011913 26.6575 -96.5574 HU 65 1 14 301
1913172N11280 1913 28 NA GM NOT_NAMED 1913-06-28 00:00:00 TS 27.0000 -97.2000 65 hurdat_atl main 29 9 O_____________ hurdat_atl AL011913 27.0000 -97.2000 HU 65 1 13 301
1913172N11280 1913 28 NA GM NOT_NAMED 1913-06-28 01:00:00 TS 27.1000 -97.4000 65 hurdat_atl main 9 0 O_____________ hurdat_atl AL011913 27.1000 -97.4000 L HU 65 1 13 301
1913172N11280 1913 28 NA NA NOT_NAMED 1913-06-28 03:00:00 TS 27.3228 -97.8038 main 0 0 P_____________ AL011913 27.3228 -97.8038 HU 56 0 13 304
1913172N11280 1913 28 NA NA NOT_NAMED 1913-06-28 06:00:00 TS 27.7000 -98.4000 45 hurdat_atl main 0 0 O_____________ hurdat_atl AL011913 27.7000 -98.4000 TS 45 0 13 306
1913172N11280 1913 28 NA NA NOT_NAMED 1913-06-28 09:00:00 TS 28.0934 -98.9803 main 0 0 P_____________ AL011913 28.0934 -98.9803 TS 40 0 13 309
1913172N11280 1913 28 NA NA NOT_NAMED 1913-06-28 12:00:00 TS 28.5000 -99.5000 35 hurdat_atl main 0 0 O_____________ hurdat_atl AL011913 28.5000 -99.5000 TS 35 0 12 314
1913172N11280 1913 28 NA NA NOT_NAMED 1913-06-28 15:00:00 TS 28.9073 -99.9452 main 0 0 P_____________ AL011913 28.9073 -99.9452 TS 32 -1 11 319
1913172N11280 1913 28 NA NA NOT_NAMED 1913-06-28 18:00:00 TS 29.3000 -100.300 30 hurdat_atl main 0 0 O_____________ hurdat_atl AL011913 29.3000 -100.300 TD 30 -1 9 324
1913172N11280 1913 28 NA NA NOT_NAMED 1913-06-28 21:00:00 TS 29.6601 -100.572 main 0 0 P_____________ AL011913 29.6601 -100.572 TD 27 -1 8 328
1913172N11280 1913 28 NA NA NOT_NAMED 1913-06-29 00:00:00 TS 30.0000 -100.800 25 hurdat_atl main 0 O_____________ hurdat_atl AL011913 30.0000 -100.800 TD 25 -1 8 330

IBTrACS Databaseについて

本データベースは、米国NOAAが公開する1842年以降の世界の熱帯低気圧のベストトラックデータアーカイブInternational Best Track Archive for Climate Stewardship (IBTrACS)を、ウェブで閲覧しやすい形式に変換したものです。

最終更新日:2021-12-03